createdAt,value
2019-03-03T00:00:49.201Z,5.80
2019-03-03T00:03:18.151Z,5.80
2019-03-03T00:05:47.351Z,5.90
2019-03-03T00:08:16.232Z,6.00
2019-03-03T00:10:45.070Z,6.00
2019-03-03T00:13:13.856Z,6.00
2019-03-03T00:15:42.643Z,6.00
2019-03-03T00:18:11.622Z,6.10
2019-03-03T00:20:40.565Z,6.10
2019-03-03T00:23:09.460Z,6.10
2019-03-03T00:25:39.881Z,6.20
2019-03-03T00:28:08.911Z,6.20
2019-03-03T00:30:37.897Z,6.20
2019-03-03T00:33:06.975Z,6.20
2019-03-03T00:35:35.786Z,6.30
2019-03-03T00:38:27.041Z,6.30
2019-03-03T00:41:13.633Z,6.30
2019-03-03T00:44:01.465Z,6.30
2019-03-03T00:46:42.442Z,6.40
2019-03-03T00:49:30.649Z,6.40
2019-03-03T00:52:30.926Z,6.40
2019-03-03T00:55:12.441Z,6.50
2019-03-03T00:57:52.493Z,6.50
2019-03-03T01:00:45.411Z,6.50
2019-03-03T01:03:26.588Z,6.60
2019-03-03T01:06:10.365Z,6.50
2019-03-03T01:08:54.766Z,6.60
2019-03-03T01:11:43.445Z,6.50
2019-03-03T01:14:20.267Z,6.60
2019-03-03T01:16:57.013Z,6.60
2019-03-03T01:19:34.213Z,6.60
2019-03-03T01:22:31.234Z,6.60
2019-03-03T01:25:00.105Z,6.60
2019-03-03T01:27:29.197Z,6.60
2019-03-03T01:29:58.002Z,6.70
2019-03-03T01:32:26.867Z,6.70
2019-03-03T01:34:55.751Z,6.70
2019-03-03T01:37:24.822Z,6.60
2019-03-03T01:39:53.671Z,6.70
2019-03-03T01:42:22.647Z,6.60
2019-03-03T01:44:51.427Z,6.70
2019-03-03T01:47:20.297Z,6.60
2019-03-03T01:49:53.179Z,6.60
2019-03-03T01:52:21.947Z,6.60
2019-03-03T01:54:50.731Z,6.70
2019-03-03T01:57:19.617Z,6.70
2019-03-03T01:59:48.416Z,6.70
2019-03-03T02:02:17.228Z,6.70
2019-03-03T02:04:46.025Z,6.70
2019-03-03T02:07:14.793Z,6.70
2019-03-03T02:09:43.619Z,6.70
2019-03-03T02:12:12.637Z,6.70
2019-03-03T02:14:41.425Z,6.70
2019-03-03T02:17:11.837Z,6.80
2019-03-03T02:19:40.723Z,6.80
2019-03-03T02:22:09.741Z,6.80
2019-03-03T02:24:38.520Z,6.80
2019-03-03T02:27:07.282Z,6.80
2019-03-03T02:29:36.071Z,6.90
2019-03-03T02:32:06.869Z,6.90
2019-03-03T02:34:35.753Z,6.90
2019-03-03T02:37:04.650Z,6.90
2019-03-03T02:39:33.603Z,7.00
2019-03-03T02:42:02.479Z,7.00
2019-03-03T02:44:31.472Z,7.00
2019-03-03T02:47:00.365Z,7.00
2019-03-03T02:49:29.185Z,7.00
2019-03-03T02:51:57.958Z,7.00
2019-03-03T02:54:26.827Z,6.90
2019-03-03T02:56:55.575Z,6.90
2019-03-03T02:59:24.352Z,6.90
2019-03-03T03:01:56.468Z,6.90
2019-03-03T03:04:26.610Z,6.90
2019-03-03T03:07:05.298Z,6.90
2019-03-03T03:09:58.559Z,6.90
2019-03-03T03:12:34.137Z,7.00
2019-03-03T03:15:08.780Z,6.90
2019-03-03T03:17:50.255Z,7.00
2019-03-03T03:20:44.383Z,6.90
2019-03-03T03:23:21.668Z,6.90
2019-03-03T03:26:08.464Z,6.90
2019-03-03T03:28:53.935Z,6.90
2019-03-03T03:31:32.136Z,6.90
2019-03-03T03:34:12.252Z,6.90
2019-03-03T03:36:50.370Z,6.90
2019-03-03T03:39:27.959Z,6.80
2019-03-03T03:42:15.209Z,6.90
2019-03-03T03:45:18.540Z,6.80
2019-03-03T03:47:57.179Z,6.80
2019-03-03T03:50:43.930Z,6.90
2019-03-03T03:53:28.119Z,6.90
2019-03-03T03:56:09.154Z,6.90
2019-03-03T03:58:53.246Z,7.00
2019-03-03T04:01:38.685Z,6.90
2019-03-03T04:04:22.118Z,6.90
2019-03-03T04:07:10.090Z,6.90
2019-03-03T04:09:43.650Z,6.90
2019-03-03T04:12:34.687Z,7.00
2019-03-03T04:15:31.566Z,7.00
2019-03-03T04:18:05.813Z,7.00
2019-03-03T04:20:44.819Z,7.10
2019-03-03T04:23:45.112Z,7.10
2019-03-03T04:26:27.217Z,7.20
2019-03-03T04:29:13.977Z,7.20
2019-03-03T04:32:00.943Z,7.20
2019-03-03T04:35:03.919Z,7.30
2019-03-03T04:37:54.509Z,7.30
2019-03-03T04:40:32.343Z,7.40
2019-03-03T04:43:10.211Z,7.40
2019-03-03T04:45:44.401Z,7.40
2019-03-03T04:48:19.960Z,7.40
2019-03-03T04:51:06.725Z,7.50
2019-03-03T04:53:57.462Z,7.50
2019-03-03T04:56:36.482Z,7.50
2019-03-03T04:59:23.367Z,7.50
2019-03-03T05:02:15.230Z,7.60
2019-03-03T05:05:01.395Z,7.60
2019-03-03T05:07:49.523Z,7.60
2019-03-03T05:10:49.839Z,7.60
2019-03-03T05:13:22.808Z,7.70
2019-03-03T05:16:13.740Z,7.70
2019-03-03T05:18:55.710Z,7.70
2019-03-03T05:21:24.492Z,7.80
2019-03-03T05:23:53.356Z,7.80
2019-03-03T05:26:22.138Z,7.80
2019-03-03T05:28:50.939Z,7.80
2019-03-03T05:31:19.726Z,7.80
2019-03-03T05:33:49.884Z,7.90
2019-03-03T05:36:18.696Z,7.90
2019-03-03T05:38:47.483Z,7.90
2019-03-03T05:41:16.242Z,8.00
2019-03-03T05:43:45.078Z,8.00
2019-03-03T05:46:13.931Z,8.00
2019-03-03T05:48:42.738Z,8.00
2019-03-03T05:51:11.593Z,8.00
2019-03-03T05:53:40.432Z,8.00
2019-03-03T05:56:09.250Z,8.00
2019-03-03T05:58:38.088Z,8.00
2019-03-03T06:01:06.968Z,8.00
2019-03-03T06:03:35.794Z,8.00
2019-03-03T06:06:04.706Z,8.00
2019-03-03T06:08:33.522Z,8.00
2019-03-03T06:11:02.366Z,8.10
2019-03-03T06:13:31.152Z,8.10
2019-03-03T06:15:59.939Z,8.10
2019-03-03T06:18:28.726Z,8.10
2019-03-03T06:20:57.514Z,8.20
2019-03-03T06:23:26.382Z,8.30
2019-03-03T06:25:55.146Z,8.30
2019-03-03T06:28:23.910Z,8.30
2019-03-03T06:30:52.705Z,8.30
2019-03-03T06:33:21.604Z,8.40
2019-03-03T06:35:50.398Z,8.40
2019-03-03T06:38:19.167Z,8.50
2019-03-03T06:40:47.978Z,8.50
2019-03-03T06:43:16.839Z,8.60
2019-03-03T06:45:45.585Z,8.60
2019-03-03T06:48:14.444Z,8.60
2019-03-03T06:50:43.300Z,8.70
2019-03-03T06:53:12.104Z,8.70
2019-03-03T06:55:40.991Z,8.80
2019-03-03T06:58:09.816Z,8.80
2019-03-03T07:00:38.602Z,8.90
2019-03-03T07:03:07.463Z,8.90
2019-03-03T07:05:36.434Z,9.00
2019-03-03T07:08:05.518Z,9.00
2019-03-03T07:10:34.492Z,9.10
2019-03-03T07:13:03.278Z,9.10
2019-03-03T07:15:32.082Z,9.10
2019-03-03T07:18:00.955Z,9.20
2019-03-03T07:20:29.864Z,9.20
2019-03-03T07:22:58.746Z,9.30
2019-03-03T07:25:27.579Z,9.30
2019-03-03T07:27:56.470Z,9.40
2019-03-03T07:30:25.258Z,9.40
2019-03-03T07:33:12.488Z,9.50
2019-03-03T07:35:41.307Z,9.50
2019-03-03T07:38:10.136Z,9.60
2019-03-03T07:40:38.916Z,9.60
2019-03-03T07:43:07.724Z,9.70
2019-03-03T07:45:36.512Z,9.80
2019-03-03T07:48:05.558Z,9.80
2019-03-03T07:50:34.360Z,9.90
2019-03-03T07:53:03.307Z,9.90
2019-03-03T07:55:32.472Z,10.00
2019-03-03T07:58:01.344Z,10.00
2019-03-03T08:00:30.328Z,10.10
2019-03-03T08:02:59.188Z,10.10
2019-03-03T08:05:28.108Z,10.20
2019-03-03T08:07:56.970Z,10.20
2019-03-03T08:10:25.738Z,10.30
2019-03-03T08:12:54.539Z,10.40
2019-03-03T08:15:23.362Z,10.40
2019-03-03T08:17:52.220Z,10.50
2019-03-03T08:20:21.205Z,10.50
2019-03-03T08:22:50.094Z,10.60
2019-03-03T08:25:19.126Z,10.70
2019-03-03T08:27:47.990Z,10.70
2019-03-03T08:30:17.003Z,10.80
2019-03-03T08:32:45.984Z,10.80
2019-03-03T08:35:15.743Z,10.80
2019-03-03T08:37:44.706Z,10.80
2019-03-03T08:40:13.857Z,10.90
2019-03-03T08:42:48.620Z,11.00
2019-03-03T08:45:26.750Z,11.10
2019-03-03T08:48:10.785Z,11.20
2019-03-03T08:51:08.004Z,11.20
2019-03-03T08:53:43.556Z,11.20
2019-03-03T08:56:34.593Z,11.10
2019-03-03T08:59:19.398Z,11.10
2019-03-03T09:01:55.434Z,11.10
2019-03-03T09:04:42.038Z,11.20
2019-03-03T09:07:17.192Z,11.30
2019-03-03T09:09:55.899Z,11.30
2019-03-03T09:12:43.802Z,11.30
2019-03-03T09:15:34.619Z,11.30
2019-03-03T09:18:18.918Z,11.30
2019-03-03T09:21:06.372Z,11.20
2019-03-03T09:23:52.192Z,11.20
2019-03-03T09:26:38.820Z,11.20
2019-03-03T09:29:30.442Z,11.20
2019-03-03T09:32:27.616Z,11.20
2019-03-03T09:35:24.874Z,11.20
2019-03-03T09:38:11.566Z,11.20
2019-03-03T09:41:14.925Z,11.30
2019-03-03T09:44:01.634Z,11.40
2019-03-03T09:46:39.208Z,11.50
2019-03-03T09:49:23.344Z,11.50
2019-03-03T09:52:21.910Z,11.60
2019-03-03T09:55:12.924Z,11.70
2019-03-03T09:57:57.834Z,11.80
2019-03-03T10:00:57.994Z,11.80
2019-03-03T10:03:52.016Z,11.90
2019-03-03T10:06:30.566Z,11.90
2019-03-03T10:09:18.482Z,11.80
2019-03-03T10:12:04.974Z,11.80
2019-03-03T10:14:38.774Z,11.80
2019-03-03T10:17:16.601Z,11.80
2019-03-03T10:20:13.837Z,11.90
2019-03-03T10:23:04.867Z,11.90
2019-03-03T10:25:52.966Z,12.00
2019-03-03T10:28:39.679Z,12.00
2019-03-03T10:31:18.234Z,11.90
2019-03-03T10:33:58.058Z,11.90
2019-03-03T10:36:44.970Z,11.80
2019-03-03T10:39:36.017Z,11.80
2019-03-03T10:42:11.666Z,11.80
2019-03-03T10:44:59.610Z,11.80
2019-03-03T10:47:50.435Z,11.90
2019-03-03T10:50:38.242Z,11.90
2019-03-03T10:53:12.452Z,11.90
2019-03-03T10:56:12.501Z,12.00
2019-03-03T10:59:09.557Z,12.00
2019-03-03T11:01:53.586Z,12.00
2019-03-03T11:04:30.915Z,12.00
2019-03-03T11:07:15.341Z,12.10
2019-03-03T11:09:57.464Z,12.20
2019-03-03T11:12:44.546Z,12.40
2019-03-03T11:15:36.110Z,12.50
2019-03-03T11:18:23.243Z,12.40
2019-03-03T11:21:23.642Z,12.40
2019-03-03T11:24:18.522Z,12.40
2019-03-03T11:26:54.954Z,12.40
2019-03-03T11:29:41.637Z,12.30
2019-03-03T11:32:25.946Z,12.30
2019-03-03T11:35:16.106Z,12.20
2019-03-03T11:37:52.851Z,12.30
2019-03-03T11:40:29.535Z,12.30
2019-03-03T11:43:15.515Z,12.40
2019-03-03T11:46:21.973Z,12.40
2019-03-03T11:49:08.250Z,12.40
2019-03-03T11:51:48.263Z,12.30
2019-03-03T11:54:45.206Z,12.20
2019-03-03T11:57:29.194Z,12.20
2019-03-03T12:00:29.398Z,12.20
2019-03-03T12:03:20.658Z,12.10
2019-03-03T12:06:11.286Z,12.10
2019-03-03T12:08:50.111Z,12.10
2019-03-03T12:11:43.859Z,12.00
2019-03-03T12:14:27.541Z,12.00
2019-03-03T12:17:15.607Z,11.90
2019-03-03T12:20:03.546Z,11.90
2019-03-03T12:22:51.221Z,11.90
2019-03-03T12:25:39.417Z,11.90
2019-03-03T12:28:34.711Z,11.80
2019-03-03T12:31:18.353Z,11.90
2019-03-03T12:34:12.926Z,11.90
2019-03-03T12:37:08.334Z,11.90
2019-03-03T12:39:45.547Z,12.00
2019-03-03T12:42:40.082Z,12.00
2019-03-03T12:45:15.519Z,12.10
2019-03-03T12:48:12.537Z,12.10
2019-03-03T12:51:03.593Z,12.10
2019-03-03T12:53:44.823Z,12.20
2019-03-03T12:56:24.602Z,12.20
2019-03-03T12:59:11.155Z,12.30
2019-03-03T13:02:04.830Z,12.30
2019-03-03T13:04:45.928Z,12.40
2019-03-03T13:07:33.014Z,12.40
2019-03-03T13:10:16.966Z,12.40
2019-03-03T13:13:07.880Z,12.40
2019-03-03T13:15:45.350Z,12.40
2019-03-03T13:18:31.939Z,12.30
2019-03-03T13:21:11.633Z,12.30
2019-03-03T13:23:54.608Z,12.30
2019-03-03T13:26:35.693Z,12.30
2019-03-03T13:29:10.581Z,12.30
2019-03-03T13:31:49.467Z,12.20
2019-03-03T13:34:38.573Z,12.20
2019-03-03T13:37:29.410Z,12.30
2019-03-03T13:40:23.281Z,12.30
2019-03-03T13:43:00.199Z,12.30
2019-03-03T13:45:31.884Z,12.30
2019-03-03T13:48:00.847Z,12.30
2019-03-03T13:50:29.858Z,12.30
2019-03-03T13:52:58.953Z,12.30
2019-03-03T13:55:28.043Z,12.30
2019-03-03T13:57:56.968Z,12.40
2019-03-03T14:00:26.414Z,12.40
2019-03-03T14:02:55.303Z,12.40
2019-03-03T14:05:24.605Z,12.50
2019-03-03T14:07:53.491Z,12.50
2019-03-03T14:10:22.573Z,12.60
2019-03-03T14:12:51.630Z,12.60
2019-03-03T14:15:20.803Z,12.60
2019-03-03T14:17:49.676Z,12.60
2019-03-03T14:20:22.375Z,12.60
2019-03-03T14:22:52.221Z,12.60
2019-03-03T14:25:21.286Z,12.60
2019-03-03T14:27:50.239Z,12.50
2019-03-03T14:30:21.140Z,12.50
2019-03-03T14:32:50.006Z,12.40
2019-03-03T14:35:19.103Z,12.40
2019-03-03T14:37:48.416Z,12.40
2019-03-03T14:40:18.149Z,12.30
2019-03-03T14:42:47.131Z,12.20
2019-03-03T14:45:17.001Z,12.20
2019-03-03T14:47:45.969Z,12.20
2019-03-03T14:50:16.483Z,12.10
2019-03-03T14:52:46.477Z,12.10
2019-03-03T14:55:16.606Z,12.00
2019-03-03T14:57:45.605Z,11.90
2019-03-03T15:00:20.369Z,11.90
2019-03-03T15:02:49.278Z,11.80
2019-03-03T15:05:18.204Z,11.80
2019-03-03T15:07:47.139Z,11.70
2019-03-03T15:10:16.184Z,11.70
2019-03-03T15:12:45.175Z,11.60
2019-03-03T15:15:14.201Z,11.60
2019-03-03T15:17:43.229Z,11.50
2019-03-03T15:20:12.248Z,11.40
2019-03-03T15:22:41.052Z,11.40
2019-03-03T15:25:10.315Z,11.30
2019-03-03T15:27:39.417Z,11.20
2019-03-03T15:30:09.377Z,11.20
2019-03-03T15:32:38.299Z,11.10
2019-03-03T15:35:07.643Z,11.10
2019-03-03T15:37:36.509Z,11.10
2019-03-03T15:40:06.981Z,11.00
2019-03-03T15:42:35.887Z,11.00
2019-03-03T15:45:05.393Z,11.00
2019-03-03T15:47:34.332Z,10.90
2019-03-03T15:50:03.250Z,10.90
2019-03-03T15:52:32.173Z,10.90
2019-03-03T15:55:01.139Z,10.90
2019-03-03T15:57:30.013Z,10.90
2019-03-03T15:59:58.838Z,10.90
2019-03-03T16:02:27.656Z,10.80
2019-03-03T16:04:56.499Z,10.80
2019-03-03T16:07:25.461Z,10.80
2019-03-03T16:09:54.452Z,10.70
2019-03-03T16:12:23.498Z,10.70
2019-03-03T16:14:52.271Z,10.70
2019-03-03T16:17:21.097Z,10.70
2019-03-03T16:19:50.013Z,10.60
2019-03-03T16:22:18.810Z,10.60
2019-03-03T16:24:47.629Z,10.60
2019-03-03T16:27:16.505Z,10.60
2019-03-03T16:29:47.578Z,10.50
2019-03-03T16:32:16.388Z,10.60
2019-03-03T16:34:45.307Z,10.50
2019-03-03T16:37:14.193Z,10.50
2019-03-03T16:39:43.149Z,10.50
2019-03-03T16:42:11.986Z,10.50
2019-03-03T16:44:40.855Z,10.40
2019-03-03T16:47:09.756Z,10.40
2019-03-03T16:49:38.656Z,10.40
2019-03-03T16:52:07.533Z,10.40
2019-03-03T16:54:36.440Z,10.40
2019-03-03T16:57:05.574Z,10.40
2019-03-03T16:59:34.441Z,10.40
2019-03-03T17:02:03.365Z,10.30
2019-03-03T17:04:32.214Z,10.40
2019-03-03T17:07:01.012Z,10.40
2019-03-03T17:09:29.871Z,10.40
2019-03-03T17:11:58.856Z,10.30
2019-03-03T17:14:27.674Z,10.30
2019-03-03T17:16:56.604Z,10.30
2019-03-03T17:19:25.521Z,10.30
2019-03-03T17:21:54.339Z,10.30
2019-03-03T17:24:23.150Z,10.40
2019-03-03T17:26:51.976Z,10.30
2019-03-03T17:29:20.799Z,10.30
2019-03-03T17:31:49.664Z,10.40
2019-03-03T17:34:18.528Z,10.40
2019-03-03T17:36:47.317Z,10.30
2019-03-03T17:39:16.216Z,10.30
2019-03-03T17:41:45.044Z,10.30
2019-03-03T17:44:13.820Z,10.30
2019-03-03T17:46:42.613Z,10.30
2019-03-03T17:49:11.442Z,10.30
2019-03-03T17:51:40.277Z,10.30
2019-03-03T17:54:09.042Z,10.40
2019-03-03T17:56:37.939Z,10.30
2019-03-03T17:59:06.883Z,10.30
2019-03-03T18:01:35.693Z,10.30
2019-03-03T18:04:04.534Z,10.30
2019-03-03T18:06:38.806Z,10.30
2019-03-03T18:09:05.130Z,10.30
2019-03-03T18:11:33.950Z,10.30
2019-03-03T18:14:02.862Z,10.30
2019-03-03T18:16:31.660Z,10.40
2019-03-03T18:19:00.565Z,10.30
2019-03-03T18:21:29.394Z,10.30
2019-03-03T18:23:58.376Z,10.40
2019-03-03T18:26:27.430Z,10.30
2019-03-03T18:28:56.324Z,10.40
2019-03-03T18:31:25.352Z,10.40
2019-03-03T18:33:54.162Z,10.40
2019-03-03T18:36:23.040Z,10.40
2019-03-03T18:38:51.901Z,10.40
2019-03-03T18:41:20.670Z,10.40
2019-03-03T18:43:49.600Z,10.40
2019-03-03T18:46:18.515Z,10.40
2019-03-03T18:48:51.566Z,10.40
2019-03-03T18:51:20.369Z,10.40
2019-03-03T18:53:49.185Z,10.40
2019-03-03T18:56:18.123Z,10.40
2019-03-03T18:58:47.044Z,10.40
2019-03-03T19:01:15.893Z,10.40
2019-03-03T19:03:44.781Z,10.40
2019-03-03T19:06:13.618Z,10.40
2019-03-03T19:08:42.402Z,10.40
2019-03-03T19:11:11.295Z,10.40
2019-03-03T19:13:40.087Z,10.40
2019-03-03T19:16:08.952Z,10.40
2019-03-03T19:18:37.730Z,10.50
2019-03-03T19:21:06.681Z,10.50
2019-03-03T19:23:35.613Z,10.50
2019-03-03T19:26:05.602Z,10.50
2019-03-03T19:28:34.531Z,10.50
2019-03-03T19:31:03.457Z,10.50
2019-03-03T19:33:39.848Z,10.50
2019-03-03T19:36:08.908Z,10.50
2019-03-03T19:38:37.679Z,10.50
2019-03-03T19:41:06.588Z,10.50
2019-03-03T19:43:35.451Z,10.50
2019-03-03T19:46:04.944Z,10.50
2019-03-03T19:48:35.858Z,10.50
2019-03-03T19:51:04.761Z,10.50
2019-03-03T19:53:33.639Z,10.50
2019-03-03T19:56:02.535Z,10.50
2019-03-03T19:58:31.420Z,10.50
2019-03-03T20:01:00.415Z,10.50
2019-03-03T20:03:29.948Z,10.50
2019-03-03T20:05:58.893Z,10.50
2019-03-03T20:08:27.885Z,10.50
2019-03-03T20:10:56.837Z,10.50
2019-03-03T20:13:25.789Z,10.50
2019-03-03T20:15:54.669Z,10.50
2019-03-03T20:18:23.725Z,10.50
2019-03-03T20:20:52.591Z,10.60
2019-03-03T20:23:21.544Z,10.60
2019-03-03T20:25:50.337Z,10.60
2019-03-03T20:28:19.386Z,10.60
2019-03-03T20:30:48.680Z,10.60
2019-03-03T20:33:17.507Z,10.60
2019-03-03T20:35:46.552Z,10.60
2019-03-03T20:38:15.385Z,10.60
2019-03-03T20:40:44.325Z,10.70
2019-03-03T20:43:13.267Z,10.70
2019-03-03T20:45:42.268Z,10.70
2019-03-03T20:48:11.249Z,10.70
2019-03-03T20:50:41.854Z,10.70
2019-03-03T20:53:10.808Z,10.70
2019-03-03T20:55:40.278Z,10.70
2019-03-03T20:58:09.106Z,10.70
2019-03-03T21:00:38.104Z,10.70
2019-03-03T21:03:06.994Z,10.70
2019-03-03T21:05:36.141Z,10.70
2019-03-03T21:08:04.952Z,10.80
2019-03-03T21:10:33.873Z,10.80
2019-03-03T21:13:02.695Z,10.80
2019-03-03T21:15:31.603Z,10.80
2019-03-03T21:18:00.534Z,10.80
2019-03-03T21:20:29.428Z,10.80
2019-03-03T21:22:58.220Z,10.80
2019-03-03T21:25:27.009Z,10.80
2019-03-03T21:27:55.930Z,10.80
2019-03-03T21:30:26.814Z,10.80
2019-03-03T21:32:56.284Z,10.80
2019-03-03T21:35:25.347Z,10.80
2019-03-03T21:37:54.344Z,10.80
2019-03-03T21:40:23.194Z,10.80
2019-03-03T21:42:51.985Z,10.80
2019-03-03T21:45:21.337Z,10.80
2019-03-03T21:47:50.251Z,10.80
2019-03-03T21:50:20.697Z,10.70
2019-03-03T21:52:49.718Z,10.80
2019-03-03T21:55:18.553Z,10.80
2019-03-03T21:57:47.459Z,10.80
2019-03-03T22:00:23.090Z,10.80
2019-03-03T22:02:51.971Z,10.80
2019-03-03T22:05:20.840Z,10.70
2019-03-03T22:07:49.763Z,10.80
2019-03-03T22:10:18.654Z,10.80
2019-03-03T22:12:47.516Z,10.80
2019-03-03T22:15:16.300Z,10.80
2019-03-03T22:17:45.163Z,10.80
2019-03-03T22:20:14.102Z,10.70
2019-03-03T22:22:43.105Z,10.70
2019-03-03T22:25:12.282Z,10.70
2019-03-03T22:27:41.128Z,10.70
2019-03-03T22:30:10.225Z,10.70
2019-03-03T22:32:39.067Z,10.70
2019-03-03T22:35:08.105Z,10.70
2019-03-03T22:37:37.048Z,10.60
2019-03-03T22:40:06.858Z,10.60
2019-03-03T22:42:35.686Z,10.60
2019-03-03T22:45:04.831Z,10.60
2019-03-03T22:47:33.623Z,10.50
2019-03-03T22:50:02.441Z,10.50
2019-03-03T22:52:31.309Z,10.50
2019-03-03T22:55:00.308Z,10.50
2019-03-03T22:57:29.326Z,10.50
2019-03-03T22:59:58.202Z,10.50
2019-03-03T23:02:27.062Z,10.50
2019-03-03T23:05:04.026Z,10.50
2019-03-03T23:07:40.476Z,10.40
2019-03-03T23:10:46.608Z,10.40
2019-03-03T23:13:39.079Z,10.40
2019-03-03T23:16:48.354Z,10.40
2019-03-03T23:19:56.644Z,10.40
2019-03-03T23:23:02.267Z,10.40
2019-03-03T23:25:59.624Z,10.40
2019-03-03T23:28:28.671Z,10.40
2019-03-03T23:30:58.050Z,10.40
2019-03-03T23:33:26.846Z,10.40
2019-03-03T23:35:55.748Z,10.40
2019-03-03T23:38:24.620Z,10.40
2019-03-03T23:40:53.476Z,10.40
2019-03-03T23:43:22.848Z,10.50
2019-03-03T23:45:51.636Z,10.40
2019-03-03T23:48:21.000Z,10.50
2019-03-03T23:50:49.941Z,10.50
2019-03-03T23:53:18.779Z,10.50
2019-03-03T23:55:47.615Z,10.50
2019-03-03T23:58:16.419Z,10.50
